sensor_id;sensor_type;location;lat;lon;timestamp;temperature;humidity
18426;DHT22;9340;48.756;9.226;2022-07-06T00:01:44;15.90;99.90
18426;DHT22;9340;48.756;9.226;2022-07-06T00:04:11;15.90;99.90
18426;DHT22;9340;48.756;9.226;2022-07-06T00:06:38;15.80;99.90
18426;DHT22;9340;48.756;9.226;2022-07-06T00:09:05;15.70;99.90
18426;DHT22;9340;48.756;9.226;2022-07-06T00:11:33;15.80;99.90
18426;DHT22;9340;48.756;9.226;2022-07-06T00:14:00;15.70;99.90
18426;DHT22;9340;48.756;9.226;2022-07-06T00:16:27;15.60;99.90
18426;DHT22;9340;48.756;9.226;2022-07-06T00:18:54;15.60;99.90
18426;DHT22;9340;48.756;9.226;2022-07-06T00:21:21;15.60;99.90
18426;DHT22;9340;48.756;9.226;2022-07-06T00:23:48;15.60;99.90
18426;DHT22;9340;48.756;9.226;2022-07-06T00:26:14;15.50;99.90
18426;DHT22;9340;48.756;9.226;2022-07-06T00:28:42;15.50;99.90
18426;DHT22;9340;48.756;9.226;2022-07-06T00:31:09;15.50;99.90
18426;DHT22;9340;48.756;9.226;2022-07-06T00:33:36;15.40;99.90
18426;DHT22;9340;48.756;9.226;2022-07-06T00:36:03;15.40;99.90
18426;DHT22;9340;48.756;9.226;2022-07-06T00:38:30;15.40;99.90
18426;DHT22;9340;48.756;9.226;2022-07-06T00:40:57;15.30;99.90
18426;DHT22;9340;48.756;9.226;2022-07-06T00:43:23;15.30;99.90
18426;DHT22;9340;48.756;9.226;2022-07-06T00:45:51;15.20;99.90
18426;DHT22;9340;48.756;9.226;2022-07-06T00:48:18;15.20;99.90
18426;DHT22;9340;48.756;9.226;2022-07-06T00:50:45;15.20;99.90
18426;DHT22;9340;48.756;9.226;2022-07-06T00:53:12;15.20;99.90
18426;DHT22;9340;48.756;9.226;2022-07-06T00:55:39;15.10;99.90
18426;DHT22;9340;48.756;9.226;2022-07-06T00:58:07;15.00;99.90
18426;DHT22;9340;48.756;9.226;2022-07-06T01:00:34;15.00;99.90
18426;DHT22;9340;48.756;9.226;2022-07-06T01:03:03;14.90;99.90
18426;DHT22;9340;48.756;9.226;2022-07-06T01:05:29;14.90;99.90
18426;DHT22;9340;48.756;9.226;2022-07-06T01:07:56;14.90;99.90
18426;DHT22;9340;48.756;9.226;2022-07-06T01:10:23;14.90;99.90
18426;DHT22;9340;48.756;9.226;2022-07-06T01:12:50;14.80;99.90
18426;DHT22;9340;48.756;9.226;2022-07-06T01:15:19;14.90;99.90
18426;DHT22;9340;48.756;9.226;2022-07-06T01:17:47;14.80;99.90
18426;DHT22;9340;48.756;9.226;2022-07-06T01:20:16;14.80;99.90
18426;DHT22;9340;48.756;9.226;2022-07-06T01:22:43;14.80;99.90
18426;DHT22;9340;48.756;9.226;2022-07-06T01:25:11;14.80;99.90
18426;DHT22;9340;48.756;9.226;2022-07-06T01:27:39;14.70;99.90
18426;DHT22;9340;48.756;9.226;2022-07-06T01:30:07;14.50;99.90
18426;DHT22;9340;48.756;9.226;2022-07-06T01:32:34;14.50;99.90
18426;DHT22;9340;48.756;9.226;2022-07-06T01:35:02;14.50;99.90
18426;DHT22;9340;48.756;9.226;2022-07-06T01:37:30;14.50;99.90
18426;DHT22;9340;48.756;9.226;2022-07-06T01:39:58;14.50;99.90
18426;DHT22;9340;48.756;9.226;2022-07-06T01:42:25;14.60;99.90
18426;DHT22;9340;48.756;9.226;2022-07-06T01:44:52;14.60;99.90
18426;DHT22;9340;48.756;9.226;2022-07-06T01:47:19;14.50;99.90
18426;DHT22;9340;48.756;9.226;2022-07-06T01:49:46;14.50;99.90
18426;DHT22;9340;48.756;9.226;2022-07-06T01:52:12;14.50;99.90
18426;DHT22;9340;48.756;9.226;2022-07-06T01:54:40;14.50;99.90
18426;DHT22;9340;48.756;9.226;2022-07-06T01:57:07;14.50;99.90
18426;DHT22;9340;48.756;9.226;2022-07-06T01:59:34;14.50;99.90
18426;DHT22;9340;48.756;9.226;2022-07-06T02:02:01;14.40;99.90
18426;DHT22;9340;48.756;9.226;2022-07-06T02:04:28;14.40;99.90
18426;DHT22;9340;48.756;9.226;2022-07-06T02:06:54;14.40;99.90
18426;DHT22;9340;48.756;9.226;2022-07-06T02:09:21;14.30;99.90
18426;DHT22;9340;48.756;9.226;2022-07-06T02:11:49;14.30;99.90
18426;DHT22;9340;48.756;9.226;2022-07-06T02:14:16;14.30;99.90
18426;DHT22;9340;48.756;9.226;2022-07-06T02:16:42;14.30;99.90
18426;DHT22;9340;48.756;9.226;2022-07-06T02:19:09;14.20;99.90
18426;DHT22;9340;48.756;9.226;2022-07-06T02:21:36;14.20;99.90
18426;DHT22;9340;48.756;9.226;2022-07-06T02:24:03;14.10;99.90
18426;DHT22;9340;48.756;9.226;2022-07-06T02:26:30;14.10;99.90
18426;DHT22;9340;48.756;9.226;2022-07-06T02:28:58;14.10;99.90
18426;DHT22;9340;48.756;9.226;2022-07-06T02:31:25;14.00;99.90
18426;DHT22;9340;48.756;9.226;2022-07-06T02:33:51;14.00;99.90
18426;DHT22;9340;48.756;9.226;2022-07-06T02:36:18;14.00;99.90
18426;DHT22;9340;48.756;9.226;2022-07-06T02:38:45;14.00;99.90
18426;DHT22;9340;48.756;9.226;2022-07-06T02:41:11;14.00;99.90
18426;DHT22;9340;48.756;9.226;2022-07-06T02:43:38;14.00;99.90
18426;DHT22;9340;48.756;9.226;2022-07-06T02:46:06;14.00;99.90
18426;DHT22;9340;48.756;9.226;2022-07-06T02:48:33;14.00;99.90
18426;DHT22;9340;48.756;9.226;2022-07-06T02:51:00;13.80;99.90
18426;DHT22;9340;48.756;9.226;2022-07-06T02:53:27;13.80;99.90
18426;DHT22;9340;48.756;9.226;2022-07-06T02:55:53;13.80;99.90
18426;DHT22;9340;48.756;9.226;2022-07-06T02:58:20;13.80;99.90
18426;DHT22;9340;48.756;9.226;2022-07-06T03:00:47;13.80;99.90
18426;DHT22;9340;48.756;9.226;2022-07-06T03:03:15;13.80;99.90
18426;DHT22;9340;48.756;9.226;2022-07-06T03:05:41;13.70;99.90
18426;DHT22;9340;48.756;9.226;2022-07-06T03:08:08;13.60;99.90
18426;DHT22;9340;48.756;9.226;2022-07-06T03:10:35;13.70;99.90
18426;DHT22;9340;48.756;9.226;2022-07-06T03:13:01;13.60;99.90
18426;DHT22;9340;48.756;9.226;2022-07-06T03:15:28;13.70;99.90
18426;DHT22;9340;48.756;9.226;2022-07-06T03:17:54;13.70;99.90
18426;DHT22;9340;48.756;9.226;2022-07-06T03:20:22;13.70;99.90
18426;DHT22;9340;48.756;9.226;2022-07-06T03:22:49;13.70;99.90
18426;DHT22;9340;48.756;9.226;2022-07-06T03:25:16;13.70;99.90
18426;DHT22;9340;48.756;9.226;2022-07-06T03:27:42;13.70;99.90
18426;DHT22;9340;48.756;9.226;2022-07-06T03:30:10;13.70;99.90
18426;DHT22;9340;48.756;9.226;2022-07-06T03:32:36;13.60;99.90
18426;DHT22;9340;48.756;9.226;2022-07-06T03:35:04;13.50;99.90
18426;DHT22;9340;48.756;9.226;2022-07-06T03:37:33;13.50;99.90
18426;DHT22;9340;48.756;9.226;2022-07-06T03:40:00;13.50;99.90
18426;DHT22;9340;48.756;9.226;2022-07-06T03:42:27;13.50;99.90
18426;DHT22;9340;48.756;9.226;2022-07-06T03:44:53;13.50;99.90
18426;DHT22;9340;48.756;9.226;2022-07-06T03:47:20;13.50;99.90
18426;DHT22;9340;48.756;9.226;2022-07-06T03:49:47;13.50;99.90
18426;DHT22;9340;48.756;9.226;2022-07-06T03:52:14;13.50;99.90
18426;DHT22;9340;48.756;9.226;2022-07-06T03:54:42;13.50;99.90
18426;DHT22;9340;48.756;9.226;2022-07-06T03:57:08;13.60;99.90
18426;DHT22;9340;48.756;9.226;2022-07-06T03:59:36;13.60;99.90
18426;DHT22;9340;48.756;9.226;2022-07-06T04:02:03;13.60;99.90
18426;DHT22;9340;48.756;9.226;2022-07-06T04:04:30;13.60;99.90
18426;DHT22;9340;48.756;9.226;2022-07-06T04:06:56;13.70;99.90
18426;DHT22;9340;48.756;9.226;2022-07-06T04:09:23;13.60;99.90
18426;DHT22;9340;48.756;9.226;2022-07-06T04:11:51;13.70;99.90
18426;DHT22;9340;48.756;9.226;2022-07-06T04:14:18;13.80;99.90
18426;DHT22;9340;48.756;9.226;2022-07-06T04:16:46;13.90;99.90
18426;DHT22;9340;48.756;9.226;2022-07-06T04:19:12;13.90;99.90
18426;DHT22;9340;48.756;9.226;2022-07-06T04:21:40;13.90;99.90
18426;DHT22;9340;48.756;9.226;2022-07-06T04:24:06;13.90;99.90
18426;DHT22;9340;48.756;9.226;2022-07-06T04:26:33;13.90;99.90
18426;DHT22;9340;48.756;9.226;2022-07-06T04:29:01;13.90;99.90
18426;DHT22;9340;48.756;9.226;2022-07-06T04:31:29;14.10;99.90
18426;DHT22;9340;48.756;9.226;2022-07-06T04:33:55;14.20;99.90
18426;DHT22;9340;48.756;9.226;2022-07-06T04:36:22;14.20;99.90
18426;DHT22;9340;48.756;9.226;2022-07-06T04:38:48;14.30;99.90
18426;DHT22;9340;48.756;9.226;2022-07-06T04:41:15;14.40;99.90
18426;DHT22;9340;48.756;9.226;2022-07-06T04:43:42;14.60;99.90
18426;DHT22;9340;48.756;9.226;2022-07-06T04:46:11;14.70;99.90
18426;DHT22;9340;48.756;9.226;2022-07-06T04:48:38;14.80;99.90
18426;DHT22;9340;48.756;9.226;2022-07-06T04:51:05;15.00;99.90
18426;DHT22;9340;48.756;9.226;2022-07-06T04:53:32;15.20;99.90
18426;DHT22;9340;48.756;9.226;2022-07-06T04:55:59;15.30;99.90
18426;DHT22;9340;48.756;9.226;2022-07-06T04:58:25;15.40;99.90
18426;DHT22;9340;48.756;9.226;2022-07-06T05:00:52;15.60;99.90
18426;DHT22;9340;48.756;9.226;2022-07-06T05:03:20;15.70;99.90
18426;DHT22;9340;48.756;9.226;2022-07-06T05:05:47;15.70;99.90
18426;DHT22;9340;48.756;9.226;2022-07-06T05:08:14;15.80;99.90
18426;DHT22;9340;48.756;9.226;2022-07-06T05:10:40;15.90;99.90
18426;DHT22;9340;48.756;9.226;2022-07-06T05:13:07;16.10;99.90
18426;DHT22;9340;48.756;9.226;2022-07-06T05:15:34;16.10;99.90
18426;DHT22;9340;48.756;9.226;2022-07-06T05:18:00;16.30;99.90
18426;DHT22;9340;48.756;9.226;2022-07-06T05:20:28;16.40;99.90
18426;DHT22;9340;48.756;9.226;2022-07-06T05:22:55;16.60;99.90
18426;DHT22;9340;48.756;9.226;2022-07-06T05:25:22;16.80;99.90
18426;DHT22;9340;48.756;9.226;2022-07-06T05:27:49;17.90;99.90
18426;DHT22;9340;48.756;9.226;2022-07-06T05:30:15;19.80;99.90
18426;DHT22;9340;48.756;9.226;2022-07-06T05:32:42;21.70;99.90
18426;DHT22;9340;48.756;9.226;2022-07-06T05:35:09;23.10;99.90
18426;DHT22;9340;48.756;9.226;2022-07-06T05:37:37;24.30;99.90
18426;DHT22;9340;48.756;9.226;2022-07-06T05:40:04;25.20;99.90
18426;DHT22;9340;48.756;9.226;2022-07-06T05:42:31;25.70;99.90
18426;DHT22;9340;48.756;9.226;2022-07-06T05:44:58;26.20;99.90
18426;DHT22;9340;48.756;9.226;2022-07-06T05:47:24;26.30;99.90
18426;DHT22;9340;48.756;9.226;2022-07-06T05:50:09;26.50;99.90
18426;DHT22;9340;48.756;9.226;2022-07-06T05:52:40;27.00;99.90
18426;DHT22;9340;48.756;9.226;2022-07-06T05:55:08;27.40;99.90
18426;DHT22;9340;48.756;9.226;2022-07-06T05:57:35;27.40;99.90
18426;DHT22;9340;48.756;9.226;2022-07-06T06:00:02;27.50;99.90
18426;DHT22;9340;48.756;9.226;2022-07-06T06:02:36;27.50;99.90
18426;DHT22;9340;48.756;9.226;2022-07-06T06:05:03;27.60;99.90
18426;DHT22;9340;48.756;9.226;2022-07-06T06:07:30;27.90;99.90
18426;DHT22;9340;48.756;9.226;2022-07-06T06:09:58;27.80;99.90
18426;DHT22;9340;48.756;9.226;2022-07-06T06:12:25;27.20;99.90
18426;DHT22;9340;48.756;9.226;2022-07-06T06:14:51;26.50;99.90
18426;DHT22;9340;48.756;9.226;2022-07-06T06:17:18;25.80;99.90
18426;DHT22;9340;48.756;9.226;2022-07-06T06:19:44;25.00;99.90
18426;DHT22;9340;48.756;9.226;2022-07-06T06:22:11;24.90;99.90
18426;DHT22;9340;48.756;9.226;2022-07-06T06:24:38;24.90;99.90
18426;DHT22;9340;48.756;9.226;2022-07-06T06:27:06;24.80;99.90
18426;DHT22;9340;48.756;9.226;2022-07-06T06:29:33;24.70;99.90
18426;DHT22;9340;48.756;9.226;2022-07-06T06:32:00;24.40;99.90
18426;DHT22;9340;48.756;9.226;2022-07-06T06:34:26;24.60;99.90
18426;DHT22;9340;48.756;9.226;2022-07-06T06:36:53;24.80;99.90
18426;DHT22;9340;48.756;9.226;2022-07-06T06:39:20;25.00;99.90
18426;DHT22;9340;48.756;9.226;2022-07-06T06:41:46;24.80;99.90
18426;DHT22;9340;48.756;9.226;2022-07-06T06:44:14;24.60;99.90
18426;DHT22;9340;48.756;9.226;2022-07-06T06:46:43;24.60;99.90
18426;DHT22;9340;48.756;9.226;2022-07-06T06:49:10;24.30;99.90
18426;DHT22;9340;48.756;9.226;2022-07-06T06:51:37;23.30;99.90
18426;DHT22;9340;48.756;9.226;2022-07-06T06:54:05;22.90;99.90
18426;DHT22;9340;48.756;9.226;2022-07-06T06:56:31;22.40;99.90
18426;DHT22;9340;48.756;9.226;2022-07-06T06:58:58;22.40;99.90
18426;DHT22;9340;48.756;9.226;2022-07-06T07:01:28;22.20;99.90
18426;DHT22;9340;48.756;9.226;2022-07-06T07:03:55;22.00;99.90
18426;DHT22;9340;48.756;9.226;2022-07-06T07:06:21;21.90;99.90
18426;DHT22;9340;48.756;9.226;2022-07-06T07:08:48;21.50;99.90
18426;DHT22;9340;48.756;9.226;2022-07-06T07:11:15;21.20;99.90
18426;DHT22;9340;48.756;9.226;2022-07-06T07:13:42;21.20;99.90
18426;DHT22;9340;48.756;9.226;2022-07-06T07:16:08;21.20;99.90
18426;DHT22;9340;48.756;9.226;2022-07-06T07:18:36;21.10;99.90
18426;DHT22;9340;48.756;9.226;2022-07-06T07:21:03;21.00;99.90
18426;DHT22;9340;48.756;9.226;2022-07-06T07:23:30;20.90;99.90
18426;DHT22;9340;48.756;9.226;2022-07-06T07:25:57;20.80;99.90
18426;DHT22;9340;48.756;9.226;2022-07-06T07:28:23;20.30;99.90
18426;DHT22;9340;48.756;9.226;2022-07-06T07:30:50;20.20;99.90
18426;DHT22;9340;48.756;9.226;2022-07-06T07:33:17;20.20;99.90
18426;DHT22;9340;48.756;9.226;2022-07-06T07:35:45;20.40;99.90
18426;DHT22;9340;48.756;9.226;2022-07-06T07:38:11;20.60;99.90
18426;DHT22;9340;48.756;9.226;2022-07-06T07:40:38;20.60;99.90
18426;DHT22;9340;48.756;9.226;2022-07-06T07:43:05;20.70;99.90
18426;DHT22;9340;48.756;9.226;2022-07-06T07:45:31;20.80;99.90
18426;DHT22;9340;48.756;9.226;2022-07-06T07:47:58;20.60;99.90
18426;DHT22;9340;48.756;9.226;2022-07-06T07:50:25;20.70;99.90
18426;DHT22;9340;48.756;9.226;2022-07-06T07:52:53;20.70;99.90
18426;DHT22;9340;48.756;9.226;2022-07-06T07:55:20;20.40;99.90
18426;DHT22;9340;48.756;9.226;2022-07-06T07:57:46;20.20;99.90
18426;DHT22;9340;48.756;9.226;2022-07-06T08:00:14;20.30;99.90
18426;DHT22;9340;48.756;9.226;2022-07-06T08:02:40;20.50;99.90
18426;DHT22;9340;48.756;9.226;2022-07-06T08:05:08;20.50;99.90
18426;DHT22;9340;48.756;9.226;2022-07-06T08:07:38;20.40;99.90
18426;DHT22;9340;48.756;9.226;2022-07-06T08:10:07;20.50;99.90
18426;DHT22;9340;48.756;9.226;2022-07-06T08:12:33;20.20;99.90
18426;DHT22;9340;48.756;9.226;2022-07-06T08:15:00;20.30;99.90
18426;DHT22;9340;48.756;9.226;2022-07-06T08:17:27;20.50;99.90
18426;DHT22;9340;48.756;9.226;2022-07-06T08:19:54;20.50;99.90
18426;DHT22;9340;48.756;9.226;2022-07-06T08:22:20;20.30;99.90
18426;DHT22;9340;48.756;9.226;2022-07-06T08:24:47;20.10;99.90
18426;DHT22;9340;48.756;9.226;2022-07-06T08:27:15;20.40;99.90
18426;DHT22;9340;48.756;9.226;2022-07-06T08:29:42;20.60;99.90
18426;DHT22;9340;48.756;9.226;2022-07-06T08:32:09;20.80;99.90
18426;DHT22;9340;48.756;9.226;2022-07-06T08:34:35;21.00;99.90
18426;DHT22;9340;48.756;9.226;2022-07-06T08:37:02;21.00;99.90
18426;DHT22;9340;48.756;9.226;2022-07-06T08:39:29;21.00;99.90
18426;DHT22;9340;48.756;9.226;2022-07-06T08:41:56;21.10;99.90
18426;DHT22;9340;48.756;9.226;2022-07-06T08:44:25;21.20;99.90
18426;DHT22;9340;48.756;9.226;2022-07-06T08:46:54;21.40;99.90
18426;DHT22;9340;48.756;9.226;2022-07-06T08:49:24;21.40;99.90
18426;DHT22;9340;48.756;9.226;2022-07-06T08:51:51;21.20;99.90
18426;DHT22;9340;48.756;9.226;2022-07-06T08:54:18;21.10;99.90
18426;DHT22;9340;48.756;9.226;2022-07-06T08:56:48;21.40;99.90
18426;DHT22;9340;48.756;9.226;2022-07-06T08:59:15;21.50;99.90
18426;DHT22;9340;48.756;9.226;2022-07-06T09:01:44;21.40;99.90
18426;DHT22;9340;48.756;9.226;2022-07-06T09:04:12;21.50;99.90
18426;DHT22;9340;48.756;9.226;2022-07-06T09:06:42;21.60;99.90
18426;DHT22;9340;48.756;9.226;2022-07-06T09:09:09;21.80;99.90
18426;DHT22;9340;48.756;9.226;2022-07-06T09:11:36;22.00;99.90
18426;DHT22;9340;48.756;9.226;2022-07-06T09:14:04;22.10;99.90
18426;DHT22;9340;48.756;9.226;2022-07-06T09:16:31;22.20;99.90
18426;DHT22;9340;48.756;9.226;2022-07-06T09:18:59;22.30;99.90
18426;DHT22;9340;48.756;9.226;2022-07-06T09:21:27;22.30;99.90
18426;DHT22;9340;48.756;9.226;2022-07-06T09:23:56;22.10;99.90
18426;DHT22;9340;48.756;9.226;2022-07-06T09:26:24;22.30;99.90
18426;DHT22;9340;48.756;9.226;2022-07-06T09:28:51;22.30;99.90
18426;DHT22;9340;48.756;9.226;2022-07-06T09:31:18;22.50;99.90
18426;DHT22;9340;48.756;9.226;2022-07-06T09:33:54;22.60;99.90
18426;DHT22;9340;48.756;9.226;2022-07-06T09:36:38;22.80;99.90
18426;DHT22;9340;48.756;9.226;2022-07-06T09:39:15;22.90;99.90
18426;DHT22;9340;48.756;9.226;2022-07-06T09:41:42;23.10;99.90
18426;DHT22;9340;48.756;9.226;2022-07-06T09:44:09;23.20;99.90
18426;DHT22;9340;48.756;9.226;2022-07-06T09:46:38;23.30;99.90
18426;DHT22;9340;48.756;9.226;2022-07-06T09:49:06;23.40;99.90
18426;DHT22;9340;48.756;9.226;2022-07-06T09:51:35;22.90;99.90
18426;DHT22;9340;48.756;9.226;2022-07-06T09:54:06;22.90;99.90
18426;DHT22;9340;48.756;9.226;2022-07-06T09:56:37;23.00;99.90
18426;DHT22;9340;48.756;9.226;2022-07-06T09:59:07;23.10;99.90
18426;DHT22;9340;48.756;9.226;2022-07-06T10:01:35;22.90;99.90
18426;DHT22;9340;48.756;9.226;2022-07-06T10:04:02;23.00;99.90
18426;DHT22;9340;48.756;9.226;2022-07-06T10:06:28;23.00;99.90
18426;DHT22;9340;48.756;9.226;2022-07-06T10:08:57;23.10;99.90
18426;DHT22;9340;48.756;9.226;2022-07-06T10:11:28;23.30;99.90
18426;DHT22;9340;48.756;9.226;2022-07-06T10:13:56;23.40;99.90
18426;DHT22;9340;48.756;9.226;2022-07-06T10:16:23;22.90;99.90
18426;DHT22;9340;48.756;9.226;2022-07-06T10:18:51;23.00;99.90
18426;DHT22;9340;48.756;9.226;2022-07-06T10:21:20;23.20;99.90
18426;DHT22;9340;48.756;9.226;2022-07-06T10:23:48;23.30;99.90
18426;DHT22;9340;48.756;9.226;2022-07-06T10:26:16;23.70;99.90
18426;DHT22;9340;48.756;9.226;2022-07-06T10:28:44;24.10;99.90
18426;DHT22;9340;48.756;9.226;2022-07-06T10:31:13;24.40;99.90
18426;DHT22;9340;48.756;9.226;2022-07-06T10:33:41;24.60;99.90
18426;DHT22;9340;48.756;9.226;2022-07-06T10:36:08;24.60;99.90
18426;DHT22;9340;48.756;9.226;2022-07-06T10:38:35;24.10;99.90
18426;DHT22;9340;48.756;9.226;2022-07-06T10:41:03;24.20;99.90
18426;DHT22;9340;48.756;9.226;2022-07-06T10:43:34;24.30;99.90
18426;DHT22;9340;48.756;9.226;2022-07-06T10:46:09;24.50;99.90
18426;DHT22;9340;48.756;9.226;2022-07-06T10:48:38;24.70;99.90
18426;DHT22;9340;48.756;9.226;2022-07-06T10:51:05;24.80;99.90
18426;DHT22;9340;48.756;9.226;2022-07-06T10:53:33;24.40;99.90
18426;DHT22;9340;48.756;9.226;2022-07-06T10:56:03;23.80;99.90
18426;DHT22;9340;48.756;9.226;2022-07-06T10:58:38;23.60;99.90
18426;DHT22;9340;48.756;9.226;2022-07-06T11:01:06;23.90;99.90
18426;DHT22;9340;48.756;9.226;2022-07-06T11:03:37;24.20;99.90
18426;DHT22;9340;48.756;9.226;2022-07-06T11:06:08;24.20;99.90
18426;DHT22;9340;48.756;9.226;2022-07-06T11:08:49;24.20;99.90
18426;DHT22;9340;48.756;9.226;2022-07-06T11:11:17;24.10;99.90
18426;DHT22;9340;48.756;9.226;2022-07-06T11:13:49;24.20;99.90
18426;DHT22;9340;48.756;9.226;2022-07-06T11:16:17;24.20;99.90
18426;DHT22;9340;48.756;9.226;2022-07-06T11:18:50;24.30;99.90
18426;DHT22;9340;48.756;9.226;2022-07-06T11:21:33;24.30;99.90
18426;DHT22;9340;48.756;9.226;2022-07-06T11:24:01;24.20;99.90
18426;DHT22;9340;48.756;9.226;2022-07-06T11:26:28;23.90;99.90
18426;DHT22;9340;48.756;9.226;2022-07-06T11:28:58;24.10;99.90
18426;DHT22;9340;48.756;9.226;2022-07-06T11:31:26;24.00;99.90
18426;DHT22;9340;48.756;9.226;2022-07-06T11:33:54;24.00;99.90
18426;DHT22;9340;48.756;9.226;2022-07-06T11:36:22;23.80;99.90
18426;DHT22;9340;48.756;9.226;2022-07-06T11:38:50;23.70;99.90
18426;DHT22;9340;48.756;9.226;2022-07-06T11:41:17;23.70;99.90
18426;DHT22;9340;48.756;9.226;2022-07-06T11:43:46;24.10;99.90
18426;DHT22;9340;48.756;9.226;2022-07-06T11:46:25;24.60;99.90
18426;DHT22;9340;48.756;9.226;2022-07-06T11:48:54;24.70;99.90
18426;DHT22;9340;48.756;9.226;2022-07-06T11:51:22;25.10;99.90
18426;DHT22;9340;48.756;9.226;2022-07-06T11:53:50;25.30;99.90
18426;DHT22;9340;48.756;9.226;2022-07-06T11:56:17;25.50;99.90
18426;DHT22;9340;48.756;9.226;2022-07-06T11:58:48;25.60;99.90
18426;DHT22;9340;48.756;9.226;2022-07-06T12:01:15;25.60;99.90
18426;DHT22;9340;48.756;9.226;2022-07-06T12:03:43;25.90;99.90
18426;DHT22;9340;48.756;9.226;2022-07-06T12:06:18;25.80;99.90
18426;DHT22;9340;48.756;9.226;2022-07-06T12:08:47;24.90;99.90
18426;DHT22;9340;48.756;9.226;2022-07-06T12:11:21;24.70;99.90
18426;DHT22;9340;48.756;9.226;2022-07-06T12:13:49;24.60;99.90
18426;DHT22;9340;48.756;9.226;2022-07-06T12:16:16;24.60;99.90
18426;DHT22;9340;48.756;9.226;2022-07-06T12:18:44;24.90;99.90
18426;DHT22;9340;48.756;9.226;2022-07-06T12:21:14;24.60;99.90
18426;DHT22;9340;48.756;9.226;2022-07-06T12:23:43;24.00;99.90
18426;DHT22;9340;48.756;9.226;2022-07-06T12:26:11;23.80;99.90
18426;DHT22;9340;48.756;9.226;2022-07-06T12:28:38;23.60;99.90
18426;DHT22;9340;48.756;9.226;2022-07-06T12:31:05;24.00;99.90
18426;DHT22;9340;48.756;9.226;2022-07-06T12:33:31;24.60;99.90
18426;DHT22;9340;48.756;9.226;2022-07-06T12:36:09;25.30;99.90
18426;DHT22;9340;48.756;9.226;2022-07-06T12:38:44;25.80;99.90
18426;DHT22;9340;48.756;9.226;2022-07-06T12:41:11;25.60;99.90
18426;DHT22;9340;48.756;9.226;2022-07-06T12:43:48;25.30;99.90
18426;DHT22;9340;48.756;9.226;2022-07-06T12:46:28;25.60;99.90
18426;DHT22;9340;48.756;9.226;2022-07-06T12:48:57;26.00;99.90
18426;DHT22;9340;48.756;9.226;2022-07-06T12:51:24;26.10;99.90
18426;DHT22;9340;48.756;9.226;2022-07-06T12:53:52;25.50;99.90
18426;DHT22;9340;48.756;9.226;2022-07-06T12:56:18;25.20;99.90
18426;DHT22;9340;48.756;9.226;2022-07-06T12:58:59;25.30;99.90
18426;DHT22;9340;48.756;9.226;2022-07-06T13:01:26;25.80;99.90
18426;DHT22;9340;48.756;9.226;2022-07-06T13:03:57;26.40;99.90
18426;DHT22;9340;48.756;9.226;2022-07-06T13:06:30;26.80;99.90
18426;DHT22;9340;48.756;9.226;2022-07-06T13:08:58;27.10;99.90
18426;DHT22;9340;48.756;9.226;2022-07-06T13:11:25;27.40;99.90
18426;DHT22;9340;48.756;9.226;2022-07-06T13:13:52;27.00;99.90
18426;DHT22;9340;48.756;9.226;2022-07-06T13:16:18;26.00;99.90
18426;DHT22;9340;48.756;9.226;2022-07-06T13:18:47;25.60;99.90
18426;DHT22;9340;48.756;9.226;2022-07-06T13:21:14;24.70;99.90
18426;DHT22;9340;48.756;9.226;2022-07-06T13:23:40;24.60;99.90
18426;DHT22;9340;48.756;9.226;2022-07-06T13:26:08;24.30;99.90
18426;DHT22;9340;48.756;9.226;2022-07-06T13:28:35;24.10;99.90
18426;DHT22;9340;48.756;9.226;2022-07-06T13:31:02;24.30;99.90
18426;DHT22;9340;48.756;9.226;2022-07-06T13:33:28;24.50;99.90
18426;DHT22;9340;48.756;9.226;2022-07-06T13:35:55;25.00;99.90
18426;DHT22;9340;48.756;9.226;2022-07-06T13:38:22;25.30;99.90
18426;DHT22;9340;48.756;9.226;2022-07-06T13:40:48;25.40;99.90
18426;DHT22;9340;48.756;9.226;2022-07-06T13:43:16;25.00;99.90
18426;DHT22;9340;48.756;9.226;2022-07-06T13:45:43;25.10;99.90
18426;DHT22;9340;48.756;9.226;2022-07-06T13:48:09;25.20;99.90
18426;DHT22;9340;48.756;9.226;2022-07-06T13:50:36;24.40;99.90
18426;DHT22;9340;48.756;9.226;2022-07-06T13:53:03;24.60;99.90
18426;DHT22;9340;48.756;9.226;2022-07-06T13:55:30;24.80;99.90
18426;DHT22;9340;48.756;9.226;2022-07-06T13:57:57;25.10;99.90
18426;DHT22;9340;48.756;9.226;2022-07-06T14:00:25;25.20;99.90
18426;DHT22;9340;48.756;9.226;2022-07-06T14:02:53;25.40;99.90
18426;DHT22;9340;48.756;9.226;2022-07-06T14:05:19;25.60;99.90
18426;DHT22;9340;48.756;9.226;2022-07-06T14:07:46;25.40;99.90
18426;DHT22;9340;48.756;9.226;2022-07-06T14:10:13;25.10;99.90
18426;DHT22;9340;48.756;9.226;2022-07-06T14:12:39;25.20;99.90
18426;DHT22;9340;48.756;9.226;2022-07-06T14:15:07;24.70;99.90
18426;DHT22;9340;48.756;9.226;2022-07-06T14:17:35;24.20;99.90
18426;DHT22;9340;48.756;9.226;2022-07-06T14:20:03;24.50;99.90
18426;DHT22;9340;48.756;9.226;2022-07-06T14:22:29;25.00;99.90
18426;DHT22;9340;48.756;9.226;2022-07-06T14:24:56;25.10;99.90
18426;DHT22;9340;48.756;9.226;2022-07-06T14:27:23;24.80;99.90
18426;DHT22;9340;48.756;9.226;2022-07-06T14:29:49;25.10;99.90
18426;DHT22;9340;48.756;9.226;2022-07-06T14:32:16;25.60;99.90
18426;DHT22;9340;48.756;9.226;2022-07-06T14:34:44;25.90;99.90
18426;DHT22;9340;48.756;9.226;2022-07-06T14:37:11;25.90;99.90
18426;DHT22;9340;48.756;9.226;2022-07-06T14:39:37;25.80;99.90
18426;DHT22;9340;48.756;9.226;2022-07-06T14:42:05;25.80;99.90
18426;DHT22;9340;48.756;9.226;2022-07-06T14:44:31;25.70;99.90
18426;DHT22;9340;48.756;9.226;2022-07-06T14:46:58;25.90;99.90
18426;DHT22;9340;48.756;9.226;2022-07-06T14:49:25;26.00;99.90
18426;DHT22;9340;48.756;9.226;2022-07-06T14:51:53;25.80;99.90
18426;DHT22;9340;48.756;9.226;2022-07-06T14:54:19;25.90;99.90
18426;DHT22;9340;48.756;9.226;2022-07-06T14:56:46;25.90;99.90
18426;DHT22;9340;48.756;9.226;2022-07-06T14:59:13;25.60;99.90
18426;DHT22;9340;48.756;9.226;2022-07-06T15:01:39;24.90;99.90
18426;DHT22;9340;48.756;9.226;2022-07-06T15:04:06;24.90;99.90
18426;DHT22;9340;48.756;9.226;2022-07-06T15:06:33;25.00;99.90
18426;DHT22;9340;48.756;9.226;2022-07-06T15:09:01;24.60;99.90
18426;DHT22;9340;48.756;9.226;2022-07-06T15:11:29;24.50;99.90
18426;DHT22;9340;48.756;9.226;2022-07-06T15:13:56;24.40;99.90
18426;DHT22;9340;48.756;9.226;2022-07-06T15:16:23;24.20;99.90
18426;DHT22;9340;48.756;9.226;2022-07-06T15:18:50;24.40;99.90
18426;DHT22;9340;48.756;9.226;2022-07-06T15:21:17;24.70;99.90
18426;DHT22;9340;48.756;9.226;2022-07-06T15:23:44;24.50;99.90
18426;DHT22;9340;48.756;9.226;2022-07-06T15:26:12;24.00;99.90
18426;DHT22;9340;48.756;9.226;2022-07-06T15:28:39;24.00;99.90
18426;DHT22;9340;48.756;9.226;2022-07-06T15:31:05;23.90;99.90
18426;DHT22;9340;48.756;9.226;2022-07-06T15:33:32;24.10;99.90
18426;DHT22;9340;48.756;9.226;2022-07-06T15:35:59;23.90;99.90
18426;DHT22;9340;48.756;9.226;2022-07-06T15:38:26;24.00;99.90
18426;DHT22;9340;48.756;9.226;2022-07-06T15:40:53;23.90;99.90
18426;DHT22;9340;48.756;9.226;2022-07-06T15:43:26;24.10;99.90
18426;DHT22;9340;48.756;9.226;2022-07-06T15:45:55;24.30;99.90
18426;DHT22;9340;48.756;9.226;2022-07-06T15:48:23;24.40;99.90